sensor_id;sensor_type;location;lat;lon;timestamp;temperature;humidity
35962;DHT22;22044;48.298;10.008;2023-09-08T00:02:19;16.50;99.90
35962;DHT22;22044;48.298;10.008;2023-09-08T00:05:05;16.50;99.90
35962;DHT22;22044;48.298;10.008;2023-09-08T00:07:52;16.40;99.90
35962;DHT22;22044;48.298;10.008;2023-09-08T00:10:38;16.10;99.90
35962;DHT22;22044;48.298;10.008;2023-09-08T00:13:23;16.00;99.90
35962;DHT22;22044;48.298;10.008;2023-09-08T00:16:09;16.10;99.90
35962;DHT22;22044;48.298;10.008;2023-09-08T00:18:55;16.20;99.90
35962;DHT22;22044;48.298;10.008;2023-09-08T00:21:41;16.20;99.90
35962;DHT22;22044;48.298;10.008;2023-09-08T00:24:28;16.20;99.90
35962;DHT22;22044;48.298;10.008;2023-09-08T00:27:14;16.00;99.90
35962;DHT22;22044;48.298;10.008;2023-09-08T00:29:59;15.70;99.90
35962;DHT22;22044;48.298;10.008;2023-09-08T00:32:46;15.70;99.90
35962;DHT22;22044;48.298;10.008;2023-09-08T00:35:31;15.60;99.90
35962;DHT22;22044;48.298;10.008;2023-09-08T00:38:17;15.50;99.90
35962;DHT22;22044;48.298;10.008;2023-09-08T00:41:05;15.30;99.90
35962;DHT22;22044;48.298;10.008;2023-09-08T00:43:51;15.30;99.90
35962;DHT22;22044;48.298;10.008;2023-09-08T00:46:36;15.30;99.90
35962;DHT22;22044;48.298;10.008;2023-09-08T00:49:22;15.30;99.90
35962;DHT22;22044;48.298;10.008;2023-09-08T00:52:07;15.40;99.90
35962;DHT22;22044;48.298;10.008;2023-09-08T00:54:53;15.50;99.90
35962;DHT22;22044;48.298;10.008;2023-09-08T00:57:40;15.50;99.90
35962;DHT22;22044;48.298;10.008;2023-09-08T01:00:27;15.50;99.90
35962;DHT22;22044;48.298;10.008;2023-09-08T01:03:12;15.50;99.90
35962;DHT22;22044;48.298;10.008;2023-09-08T01:05:58;15.50;99.90
35962;DHT22;22044;48.298;10.008;2023-09-08T01:08:44;15.60;99.90
35962;DHT22;22044;48.298;10.008;2023-09-08T01:11:30;15.40;99.90
35962;DHT22;22044;48.298;10.008;2023-09-08T01:14:19;15.30;99.90
35962;DHT22;22044;48.298;10.008;2023-09-08T01:17:04;15.40;99.90
35962;DHT22;22044;48.298;10.008;2023-09-08T01:19:52;15.40;99.90
35962;DHT22;22044;48.298;10.008;2023-09-08T01:22:55;15.40;99.90
35962;DHT22;22044;48.298;10.008;2023-09-08T01:25:50;15.50;99.90
35962;DHT22;22044;48.298;10.008;2023-09-08T01:28:39;15.50;99.90
35962;DHT22;22044;48.298;10.008;2023-09-08T01:31:25;15.60;99.90
35962;DHT22;22044;48.298;10.008;2023-09-08T01:34:12;15.50;99.90
35962;DHT22;22044;48.298;10.008;2023-09-08T01:36:58;15.60;99.90
35962;DHT22;22044;48.298;10.008;2023-09-08T01:39:46;15.70;99.90
35962;DHT22;22044;48.298;10.008;2023-09-08T01:42:34;15.80;99.90
35962;DHT22;22044;48.298;10.008;2023-09-08T01:45:19;15.70;99.90
35962;DHT22;22044;48.298;10.008;2023-09-08T01:48:05;15.80;99.90
35962;DHT22;22044;48.298;10.008;2023-09-08T01:50:51;15.70;99.90
35962;DHT22;22044;48.298;10.008;2023-09-08T01:53:37;15.70;99.90
35962;DHT22;22044;48.298;10.008;2023-09-08T01:56:22;15.70;99.90
35962;DHT22;22044;48.298;10.008;2023-09-08T01:59:09;15.70;99.90
35962;DHT22;22044;48.298;10.008;2023-09-08T02:01:55;15.60;99.90
35962;DHT22;22044;48.298;10.008;2023-09-08T02:04:40;15.60;99.90
35962;DHT22;22044;48.298;10.008;2023-09-08T02:07:26;15.60;99.90
35962;DHT22;22044;48.298;10.008;2023-09-08T02:10:12;15.60;99.90
35962;DHT22;22044;48.298;10.008;2023-09-08T02:12:57;15.50;99.90
35962;DHT22;22044;48.298;10.008;2023-09-08T02:15:45;15.50;99.90
35962;DHT22;22044;48.298;10.008;2023-09-08T02:18:30;15.50;99.90
35962;DHT22;22044;48.298;10.008;2023-09-08T02:21:16;15.50;99.90
35962;DHT22;22044;48.298;10.008;2023-09-08T02:24:02;15.40;99.90
35962;DHT22;22044;48.298;10.008;2023-09-08T02:26:48;15.30;99.90
35962;DHT22;22044;48.298;10.008;2023-09-08T02:29:35;15.20;99.90
35962;DHT22;22044;48.298;10.008;2023-09-08T02:32:22;15.10;99.90
35962;DHT22;22044;48.298;10.008;2023-09-08T02:35:08;15.00;99.90
35962;DHT22;22044;48.298;10.008;2023-09-08T02:37:54;14.90;99.90
35962;DHT22;22044;48.298;10.008;2023-09-08T02:40:40;15.00;99.90
35962;DHT22;22044;48.298;10.008;2023-09-08T02:43:26;15.00;99.90
35962;DHT22;22044;48.298;10.008;2023-09-08T02:46:11;15.10;99.90
35962;DHT22;22044;48.298;10.008;2023-09-08T02:48:58;15.10;99.90
35962;DHT22;22044;48.298;10.008;2023-09-08T02:51:46;15.10;99.90
35962;DHT22;22044;48.298;10.008;2023-09-08T02:54:31;15.20;99.90
35962;DHT22;22044;48.298;10.008;2023-09-08T02:57:17;15.20;99.90
35962;DHT22;22044;48.298;10.008;2023-09-08T03:00:03;15.20;99.90
35962;DHT22;22044;48.298;10.008;2023-09-08T03:02:49;15.20;99.90
35962;DHT22;22044;48.298;10.008;2023-09-08T03:05:36;15.20;99.90
35962;DHT22;22044;48.298;10.008;2023-09-08T03:08:23;15.20;99.90
35962;DHT22;22044;48.298;10.008;2023-09-08T03:11:08;15.00;99.90
35962;DHT22;22044;48.298;10.008;2023-09-08T03:13:54;14.90;99.90
35962;DHT22;22044;48.298;10.008;2023-09-08T03:16:39;14.90;99.90
35962;DHT22;22044;48.298;10.008;2023-09-08T03:19:25;14.80;99.90
35962;DHT22;22044;48.298;10.008;2023-09-08T03:22:12;14.90;99.90
35962;DHT22;22044;48.298;10.008;2023-09-08T03:24:57;14.80;99.90
35962;DHT22;22044;48.298;10.008;2023-09-08T03:27:43;14.90;99.90
35962;DHT22;22044;48.298;10.008;2023-09-08T03:30:29;14.90;99.90
35962;DHT22;22044;48.298;10.008;2023-09-08T03:33:14;14.80;99.90
35962;DHT22;22044;48.298;10.008;2023-09-08T03:36:00;14.80;99.90
35962;DHT22;22044;48.298;10.008;2023-09-08T03:38:48;14.80;99.90
35962;DHT22;22044;48.298;10.008;2023-09-08T03:41:34;14.80;99.90
35962;DHT22;22044;48.298;10.008;2023-09-08T03:44:20;14.80;99.90
35962;DHT22;22044;48.298;10.008;2023-09-08T03:47:06;14.80;99.90
35962;DHT22;22044;48.298;10.008;2023-09-08T03:49:51;14.80;99.90
35962;DHT22;22044;48.298;10.008;2023-09-08T03:52:37;14.80;99.90
35962;DHT22;22044;48.298;10.008;2023-09-08T03:55:24;14.80;99.90
35962;DHT22;22044;48.298;10.008;2023-09-08T03:58:10;14.80;99.90
35962;DHT22;22044;48.298;10.008;2023-09-08T04:00:56;14.80;99.90
35962;DHT22;22044;48.298;10.008;2023-09-08T04:03:42;14.80;99.90
35962;DHT22;22044;48.298;10.008;2023-09-08T04:06:28;14.90;99.90
35962;DHT22;22044;48.298;10.008;2023-09-08T04:09:14;14.90;99.90
35962;DHT22;22044;48.298;10.008;2023-09-08T04:12:01;14.90;99.90
35962;DHT22;22044;48.298;10.008;2023-09-08T04:14:48;14.90;99.90
35962;DHT22;22044;48.298;10.008;2023-09-08T04:17:34;14.70;99.90
35962;DHT22;22044;48.298;10.008;2023-09-08T04:20:20;14.60;99.90
35962;DHT22;22044;48.298;10.008;2023-09-08T04:23:06;14.50;99.90
35962;DHT22;22044;48.298;10.008;2023-09-08T04:25:52;14.60;99.90
35962;DHT22;22044;48.298;10.008;2023-09-08T04:28:40;14.50;99.90
35962;DHT22;22044;48.298;10.008;2023-09-08T04:31:26;14.30;99.90
35962;DHT22;22044;48.298;10.008;2023-09-08T04:34:11;14.10;99.90
35962;DHT22;22044;48.298;10.008;2023-09-08T04:36:57;14.00;99.90
35962;DHT22;22044;48.298;10.008;2023-09-08T04:39:43;14.00;99.90
35962;DHT22;22044;48.298;10.008;2023-09-08T04:42:30;14.00;99.90
35962;DHT22;22044;48.298;10.008;2023-09-08T04:45:17;14.00;99.90
35962;DHT22;22044;48.298;10.008;2023-09-08T04:48:04;14.00;99.90
35962;DHT22;22044;48.298;10.008;2023-09-08T04:50:50;14.10;99.90
35962;DHT22;22044;48.298;10.008;2023-09-08T04:53:36;13.90;99.90
35962;DHT22;22044;48.298;10.008;2023-09-08T04:56:22;13.90;99.90
35962;DHT22;22044;48.298;10.008;2023-09-08T04:59:08;14.00;99.90
35962;DHT22;22044;48.298;10.008;2023-09-08T05:01:55;14.00;99.90
35962;DHT22;22044;48.298;10.008;2023-09-08T05:04:40;14.10;99.90
35962;DHT22;22044;48.298;10.008;2023-09-08T05:07:27;14.20;99.90
35962;DHT22;22044;48.298;10.008;2023-09-08T05:10:13;14.10;99.90
35962;DHT22;22044;48.298;10.008;2023-09-08T05:12:59;14.10;99.90
35962;DHT22;22044;48.298;10.008;2023-09-08T05:15:45;14.00;99.90
35962;DHT22;22044;48.298;10.008;2023-09-08T05:18:35;13.90;99.90
35962;DHT22;22044;48.298;10.008;2023-09-08T05:21:20;13.90;99.90
35962;DHT22;22044;48.298;10.008;2023-09-08T05:24:06;13.90;99.90
35962;DHT22;22044;48.298;10.008;2023-09-08T05:26:53;13.90;99.90
35962;DHT22;22044;48.298;10.008;2023-09-08T05:29:39;14.00;99.90
35962;DHT22;22044;48.298;10.008;2023-09-08T05:32:25;14.10;99.90
35962;DHT22;22044;48.298;10.008;2023-09-08T05:35:13;14.10;99.90
35962;DHT22;22044;48.298;10.008;2023-09-08T05:37:59;14.20;99.90
35962;DHT22;22044;48.298;10.008;2023-09-08T05:40:45;14.30;99.90
35962;DHT22;22044;48.298;10.008;2023-09-08T05:43:31;14.40;99.90
35962;DHT22;22044;48.298;10.008;2023-09-08T05:46:17;14.60;99.90
35962;DHT22;22044;48.298;10.008;2023-09-08T05:49:03;14.70;99.90
35962;DHT22;22044;48.298;10.008;2023-09-08T05:51:51;14.80;99.90
35962;DHT22;22044;48.298;10.008;2023-09-08T05:54:37;14.90;99.90
35962;DHT22;22044;48.298;10.008;2023-09-08T05:57:23;15.10;99.90
35962;DHT22;22044;48.298;10.008;2023-09-08T06:00:09;15.10;99.90
35962;DHT22;22044;48.298;10.008;2023-09-08T06:03:03;15.20;99.90
35962;DHT22;22044;48.298;10.008;2023-09-08T06:05:50;15.20;99.90
35962;DHT22;22044;48.298;10.008;2023-09-08T06:08:37;15.30;99.90
35962;DHT22;22044;48.298;10.008;2023-09-08T06:11:23;15.40;99.90
35962;DHT22;22044;48.298;10.008;2023-09-08T06:14:09;15.40;99.90
35962;DHT22;22044;48.298;10.008;2023-09-08T06:16:59;15.40;99.90
35962;DHT22;22044;48.298;10.008;2023-09-08T06:19:45;15.50;99.90
35962;DHT22;22044;48.298;10.008;2023-09-08T06:22:30;15.60;99.90
35962;DHT22;22044;48.298;10.008;2023-09-08T06:25:19;15.80;99.90
35962;DHT22;22044;48.298;10.008;2023-09-08T06:28:05;15.80;99.90
35962;DHT22;22044;48.298;10.008;2023-09-08T06:30:51;15.80;99.90
35962;DHT22;22044;48.298;10.008;2023-09-08T06:33:37;15.80;99.90
35962;DHT22;22044;48.298;10.008;2023-09-08T06:36:23;15.70;99.90
35962;DHT22;22044;48.298;10.008;2023-09-08T06:39:11;15.70;99.90
35962;DHT22;22044;48.298;10.008;2023-09-08T06:41:59;15.70;99.90
35962;DHT22;22044;48.298;10.008;2023-09-08T06:44:44;15.70;99.90
35962;DHT22;22044;48.298;10.008;2023-09-08T06:50:40;15.90;99.90
35962;DHT22;22044;48.298;10.008;2023-09-08T06:59:43;16.10;99.90
35962;DHT22;22044;48.298;10.008;2023-09-08T07:02:29;16.20;99.90
35962;DHT22;22044;48.298;10.008;2023-09-08T07:05:14;16.30;99.90
35962;DHT22;22044;48.298;10.008;2023-09-08T07:08:00;16.40;99.90
35962;DHT22;22044;48.298;10.008;2023-09-08T07:10:52;16.50;99.90
35962;DHT22;22044;48.298;10.008;2023-09-08T07:13:38;16.60;99.90
35962;DHT22;22044;48.298;10.008;2023-09-08T07:16:25;16.60;99.90
35962;DHT22;22044;48.298;10.008;2023-09-08T07:19:11;16.80;99.90
35962;DHT22;22044;48.298;10.008;2023-09-08T07:21:58;16.90;99.90
35962;DHT22;22044;48.298;10.008;2023-09-08T07:24:44;16.90;99.90
35962;DHT22;22044;48.298;10.008;2023-09-08T07:27:31;17.00;99.90
35962;DHT22;22044;48.298;10.008;2023-09-08T07:30:17;17.10;99.90
35962;DHT22;22044;48.298;10.008;2023-09-08T07:33:04;17.20;99.90
35962;DHT22;22044;48.298;10.008;2023-09-08T07:35:50;17.20;99.90
35962;DHT22;22044;48.298;10.008;2023-09-08T07:38:35;17.40;99.90
35962;DHT22;22044;48.298;10.008;2023-09-08T07:41:22;17.50;99.90
35962;DHT22;22044;48.298;10.008;2023-09-08T07:44:08;17.60;99.90
35962;DHT22;22044;48.298;10.008;2023-09-08T07:46:55;17.70;99.90
35962;DHT22;22044;48.298;10.008;2023-09-08T07:49:45;17.80;99.90
35962;DHT22;22044;48.298;10.008;2023-09-08T07:52:33;18.00;99.90
35962;DHT22;22044;48.298;10.008;2023-09-08T07:55:19;18.10;99.90
35962;DHT22;22044;48.298;10.008;2023-09-08T07:58:08;18.30;99.90
35962;DHT22;22044;48.298;10.008;2023-09-08T08:00:54;18.40;99.90
35962;DHT22;22044;48.298;10.008;2023-09-08T08:03:40;18.50;99.90
35962;DHT22;22044;48.298;10.008;2023-09-08T08:06:27;18.60;99.90
35962;DHT22;22044;48.298;10.008;2023-09-08T08:09:12;18.80;99.90
35962;DHT22;22044;48.298;10.008;2023-09-08T08:11:59;18.90;99.90
35962;DHT22;22044;48.298;10.008;2023-09-08T08:14:46;19.00;99.90
35962;DHT22;22044;48.298;10.008;2023-09-08T08:17:32;19.10;99.90
35962;DHT22;22044;48.298;10.008;2023-09-08T08:20:17;19.20;99.90
35962;DHT22;22044;48.298;10.008;2023-09-08T08:23:05;19.30;99.90
35962;DHT22;22044;48.298;10.008;2023-09-08T08:25:51;19.40;99.90
35962;DHT22;22044;48.298;10.008;2023-09-08T08:28:37;19.70;99.90
35962;DHT22;22044;48.298;10.008;2023-09-08T08:31:23;19.90;99.90
35962;DHT22;22044;48.298;10.008;2023-09-08T08:34:09;20.20;99.90
35962;DHT22;22044;48.298;10.008;2023-09-08T08:36:55;20.30;99.90
35962;DHT22;22044;48.298;10.008;2023-09-08T08:39:45;20.50;99.90
35962;DHT22;22044;48.298;10.008;2023-09-08T08:42:33;20.60;99.90
35962;DHT22;22044;48.298;10.008;2023-09-08T08:45:23;20.80;99.90
35962;DHT22;22044;48.298;10.008;2023-09-08T08:48:10;21.00;99.90
35962;DHT22;22044;48.298;10.008;2023-09-08T08:50:57;21.00;99.90
35962;DHT22;22044;48.298;10.008;2023-09-08T08:53:43;21.20;99.90
35962;DHT22;22044;48.298;10.008;2023-09-08T08:56:31;21.30;99.90
35962;DHT22;22044;48.298;10.008;2023-09-08T08:59:18;21.40;99.90
35962;DHT22;22044;48.298;10.008;2023-09-08T09:02:04;21.50;99.90
35962;DHT22;22044;48.298;10.008;2023-09-08T09:04:51;21.60;99.90
35962;DHT22;22044;48.298;10.008;2023-09-08T09:07:38;21.80;99.90
35962;DHT22;22044;48.298;10.008;2023-09-08T09:10:23;22.00;99.90
35962;DHT22;22044;48.298;10.008;2023-09-08T09:13:10;22.20;99.90
35962;DHT22;22044;48.298;10.008;2023-09-08T09:15:58;22.30;99.90
35962;DHT22;22044;48.298;10.008;2023-09-08T09:18:55;22.50;99.90
35962;DHT22;22044;48.298;10.008;2023-09-08T09:21:43;22.60;99.90
35962;DHT22;22044;48.298;10.008;2023-09-08T09:24:31;22.70;99.90
35962;DHT22;22044;48.298;10.008;2023-09-08T09:27:21;22.80;99.90
35962;DHT22;22044;48.298;10.008;2023-09-08T09:30:09;22.80;99.90
35962;DHT22;22044;48.298;10.008;2023-09-08T09:33:00;23.00;99.90
35962;DHT22;22044;48.298;10.008;2023-09-08T09:35:47;23.10;99.90
35962;DHT22;22044;48.298;10.008;2023-09-08T09:38:35;23.20;99.90
35962;DHT22;22044;48.298;10.008;2023-09-08T09:41:22;23.30;99.90
35962;DHT22;22044;48.298;10.008;2023-09-08T09:44:09;23.40;99.90
35962;DHT22;22044;48.298;10.008;2023-09-08T09:46:57;23.70;99.90
35962;DHT22;22044;48.298;10.008;2023-09-08T09:49:43;23.90;99.90
35962;DHT22;22044;48.298;10.008;2023-09-08T09:52:30;24.00;99.90
35962;DHT22;22044;48.298;10.008;2023-09-08T09:55:16;24.10;99.90
35962;DHT22;22044;48.298;10.008;2023-09-08T09:58:03;24.30;99.90
35962;DHT22;22044;48.298;10.008;2023-09-08T10:00:50;24.40;99.90
35962;DHT22;22044;48.298;10.008;2023-09-08T10:03:38;24.60;99.90
35962;DHT22;22044;48.298;10.008;2023-09-08T10:06:25;24.80;99.90
35962;DHT22;22044;48.298;10.008;2023-09-08T10:09:11;24.90;99.90
35962;DHT22;22044;48.298;10.008;2023-09-08T10:12:03;25.10;99.90
35962;DHT22;22044;48.298;10.008;2023-09-08T10:14:53;25.10;99.90
35962;DHT22;22044;48.298;10.008;2023-09-08T10:17:41;25.20;99.90
35962;DHT22;22044;48.298;10.008;2023-09-08T10:20:33;25.40;99.90
35962;DHT22;22044;48.298;10.008;2023-09-08T10:23:22;25.40;99.90
35962;DHT22;22044;48.298;10.008;2023-09-08T10:26:10;24.80;99.90
35962;DHT22;22044;48.298;10.008;2023-09-08T10:28:57;25.10;99.90
35962;DHT22;22044;48.298;10.008;2023-09-08T10:31:43;25.40;99.90
35962;DHT22;22044;48.298;10.008;2023-09-08T10:34:31;25.50;99.90
35962;DHT22;22044;48.298;10.008;2023-09-08T10:37:23;25.80;99.90
35962;DHT22;22044;48.298;10.008;2023-09-08T10:40:23;26.00;99.90
35962;DHT22;22044;48.298;10.008;2023-09-08T10:43:11;26.10;99.90
35962;DHT22;22044;48.298;10.008;2023-09-08T10:45:57;26.10;99.90
35962;DHT22;22044;48.298;10.008;2023-09-08T10:48:43;26.20;99.90
35962;DHT22;22044;48.298;10.008;2023-09-08T10:51:30;26.10;99.90
35962;DHT22;22044;48.298;10.008;2023-09-08T10:54:41;26.10;99.90
35962;DHT22;22044;48.298;10.008;2023-09-08T10:57:27;26.10;99.90
35962;DHT22;22044;48.298;10.008;2023-09-08T11:00:18;26.20;99.90
35962;DHT22;22044;48.298;10.008;2023-09-08T11:03:05;26.10;99.90
35962;DHT22;22044;48.298;10.008;2023-09-08T11:05:51;26.10;99.90
35962;DHT22;22044;48.298;10.008;2023-09-08T11:08:38;26.10;99.90
35962;DHT22;22044;48.298;10.008;2023-09-08T11:11:25;26.10;99.90
35962;DHT22;22044;48.298;10.008;2023-09-08T11:14:11;26.20;99.90
35962;DHT22;22044;48.298;10.008;2023-09-08T11:16:57;26.20;99.90
35962;DHT22;22044;48.298;10.008;2023-09-08T11:19:45;26.40;99.90
35962;DHT22;22044;48.298;10.008;2023-09-08T11:22:31;26.50;99.90
35962;DHT22;22044;48.298;10.008;2023-09-08T11:25:16;26.50;99.90
35962;DHT22;22044;48.298;10.008;2023-09-08T11:28:04;26.60;99.90
35962;DHT22;22044;48.298;10.008;2023-09-08T11:30:50;26.40;99.90
35962;DHT22;22044;48.298;10.008;2023-09-08T11:33:35;26.50;99.90
35962;DHT22;22044;48.298;10.008;2023-09-08T11:36:23;26.50;99.90
35962;DHT22;22044;48.298;10.008;2023-09-08T11:39:09;26.60;99.90
35962;DHT22;22044;48.298;10.008;2023-09-08T11:41:55;26.70;99.90
35962;DHT22;22044;48.298;10.008;2023-09-08T11:44:42;26.60;99.90
35962;DHT22;22044;48.298;10.008;2023-09-08T11:47:28;26.60;99.90
35962;DHT22;22044;48.298;10.008;2023-09-08T11:50:15;26.70;99.90
35962;DHT22;22044;48.298;10.008;2023-09-08T11:53:02;26.70;99.90
35962;DHT22;22044;48.298;10.008;2023-09-08T11:55:48;26.90;99.90
35962;DHT22;22044;48.298;10.008;2023-09-08T11:58:34;26.90;99.90
35962;DHT22;22044;48.298;10.008;2023-09-08T12:01:21;26.80;99.90
35962;DHT22;22044;48.298;10.008;2023-09-08T12:04:07;26.70;99.90
35962;DHT22;22044;48.298;10.008;2023-09-08T12:07:02;26.90;99.90
35962;DHT22;22044;48.298;10.008;2023-09-08T12:09:47;27.00;99.90
35962;DHT22;22044;48.298;10.008;2023-09-08T12:12:32;27.00;99.90
35962;DHT22;22044;48.298;10.008;2023-09-08T12:15:30;27.10;99.90
35962;DHT22;22044;48.298;10.008;2023-09-08T12:18:18;27.00;99.90
35962;DHT22;22044;48.298;10.008;2023-09-08T12:21:04;27.10;99.90
35962;DHT22;22044;48.298;10.008;2023-09-08T12:23:51;27.20;99.90
35962;DHT22;22044;48.298;10.008;2023-09-08T12:26:37;27.30;99.90
35962;DHT22;22044;48.298;10.008;2023-09-08T12:29:23;27.40;99.90
35962;DHT22;22044;48.298;10.008;2023-09-08T12:32:12;27.40;99.90
35962;DHT22;22044;48.298;10.008;2023-09-08T12:35:01;27.40;99.90
35962;DHT22;22044;48.298;10.008;2023-09-08T12:37:49;27.30;99.90
35962;DHT22;22044;48.298;10.008;2023-09-08T12:40:37;27.40;99.90
35962;DHT22;22044;48.298;10.008;2023-09-08T12:43:23;27.40;99.90
35962;DHT22;22044;48.298;10.008;2023-09-08T12:46:08;27.40;99.90
35962;DHT22;22044;48.298;10.008;2023-09-08T12:48:54;27.40;99.90
35962;DHT22;22044;48.298;10.008;2023-09-08T12:51:41;27.50;99.90
35962;DHT22;22044;48.298;10.008;2023-09-08T12:54:27;27.60;99.90
35962;DHT22;22044;48.298;10.008;2023-09-08T12:57:14;27.60;99.90
35962;DHT22;22044;48.298;10.008;2023-09-08T13:00:00;27.60;99.90
35962;DHT22;22044;48.298;10.008;2023-09-08T13:02:45;27.70;99.90
35962;DHT22;22044;48.298;10.008;2023-09-08T13:05:31;27.80;99.90
35962;DHT22;22044;48.298;10.008;2023-09-08T13:08:18;27.90;99.90
35962;DHT22;22044;48.298;10.008;2023-09-08T13:11:03;27.90;99.90
35962;DHT22;22044;48.298;10.008;2023-09-08T13:13:49;27.90;99.90
35962;DHT22;22044;48.298;10.008;2023-09-08T13:16:35;27.90;99.90
35962;DHT22;22044;48.298;10.008;2023-09-08T13:19:20;28.00;99.90
35962;DHT22;22044;48.298;10.008;2023-09-08T13:22:06;28.10;99.90
35962;DHT22;22044;48.298;10.008;2023-09-08T13:24:53;28.10;99.90
35962;DHT22;22044;48.298;10.008;2023-09-08T13:27:40;28.20;99.90
35962;DHT22;22044;48.298;10.008;2023-09-08T13:30:26;28.30;99.90
35962;DHT22;22044;48.298;10.008;2023-09-08T13:33:12;28.20;99.90
35962;DHT22;22044;48.298;10.008;2023-09-08T13:35:57;28.10;99.90
35962;DHT22;22044;48.298;10.008;2023-09-08T13:38:43;28.10;99.90
35962;DHT22;22044;48.298;10.008;2023-09-08T13:44:23;28.30;99.90
35962;DHT22;22044;48.298;10.008;2023-09-08T13:47:09;28.70;99.90
35962;DHT22;22044;48.298;10.008;2023-09-08T13:49:55;28.70;99.90
35962;DHT22;22044;48.298;10.008;2023-09-08T13:52:40;28.80;99.90
35962;DHT22;22044;48.298;10.008;2023-09-08T13:55:26;28.80;99.90
35962;DHT22;22044;48.298;10.008;2023-09-08T13:58:11;28.90;99.90
35962;DHT22;22044;48.298;10.008;2023-09-08T14:00:58;28.80;99.90
35962;DHT22;22044;48.298;10.008;2023-09-08T14:03:44;28.70;99.90
35962;DHT22;22044;48.298;10.008;2023-09-08T14:06:29;28.60;99.90
35962;DHT22;22044;48.298;10.008;2023-09-08T14:09:15;28.50;99.90
35962;DHT22;22044;48.298;10.008;2023-09-08T14:12:01;28.50;99.90
35962;DHT22;22044;48.298;10.008;2023-09-08T14:14:46;28.50;99.90
35962;DHT22;22044;48.298;10.008;2023-09-08T14:17:33;28.50;99.90
35962;DHT22;22044;48.298;10.008;2023-09-08T14:20:19;28.40;99.90
35962;DHT22;22044;48.298;10.008;2023-09-08T14:23:05;28.50;99.90
35962;DHT22;22044;48.298;10.008;2023-09-08T14:25:52;28.50;99.90
35962;DHT22;22044;48.298;10.008;2023-09-08T14:28:38;28.60;99.90
35962;DHT22;22044;48.298;10.008;2023-09-08T14:31:23;28.50;99.90
35962;DHT22;22044;48.298;10.008;2023-09-08T14:34:10;28.50;99.90
35962;DHT22;22044;48.298;10.008;2023-09-08T14:36:56;28.60;99.90
35962;DHT22;22044;48.298;10.008;2023-09-08T14:39:41;28.70;99.90
35962;DHT22;22044;48.298;10.008;2023-09-08T14:42:27;28.60;99.90
35962;DHT22;22044;48.298;10.008;2023-09-08T14:45:13;28.80;99.90
35962;DHT22;22044;48.298;10.008;2023-09-08T14:47:59;28.70;99.90
35962;DHT22;22044;48.298;10.008;2023-09-08T14:50:46;28.50;99.90
35962;DHT22;22044;48.298;10.008;2023-09-08T14:53:31;28.30;99.90
35962;DHT22;22044;48.298;10.008;2023-09-08T14:56:17;28.20;99.90
35962;DHT22;22044;48.298;10.008;2023-09-08T14:59:03;28.30;99.90
35962;DHT22;22044;48.298;10.008;2023-09-08T15:01:48;28.30;99.90
35962;DHT22;22044;48.298;10.008;2023-09-08T15:04:35;28.40;99.90
35962;DHT22;22044;48.298;10.008;2023-09-08T15:07:22;28.70;99.90
35962;DHT22;22044;48.298;10.008;2023-09-08T15:10:08;28.70;99.90
35962;DHT22;22044;48.298;10.008;2023-09-08T15:12:54;28.70;99.90
35962;DHT22;22044;48.298;10.008;2023-09-08T15:15:40;28.20;99.90
35962;DHT22;22044;48.298;10.008;2023-09-08T15:18:25;28.30;99.90
35962;DHT22;22044;48.298;10.008;2023-09-08T15:21:11;28.20;99.90
35962;DHT22;22044;48.298;10.008;2023-09-08T15:23:58;27.90;99.90
35962;DHT22;22044;48.298;10.008;2023-09-08T15:26:43;27.80;99.90
35962;DHT22;22044;48.298;10.008;2023-09-08T15:29:30;27.80;99.90
35962;DHT22;22044;48.298;10.008;2023-09-08T15:32:15;27.60;99.90
35962;DHT22;22044;48.298;10.008;2023-09-08T15:35:01;27.70;99.90
35962;DHT22;22044;48.298;10.008;2023-09-08T15:37:47;27.70;99.90
35962;DHT22;22044;48.298;10.008;2023-09-08T15:40:34;27.70;99.90
35962;DHT22;22044;48.298;10.008;2023-09-08T15:43:19;27.70;99.90
35962;DHT22;22044;48.298;10.008;2023-09-08T15:46:05;27.50;99.90
35962;DHT22;22044;48.298;10.008;2023-09-08T15:48:50;27.40;99.90
35962;DHT22;22044;48.298;10.008;2023-09-08T15:51:36;27.70;99.90
35962;DHT22;22044;48.298;10.008;2023-09-08T15:54:22;27.60;99.90
35962;DHT22;22044;48.298;10.008;2023-09-08T15:57:08;27.70;99.90
35962;DHT22;22044;48.298;10.008;2023-09-08T15:59:54;27.60;99.90
35962;DHT22;22044;48.298;10.008;2023-09-08T16:02:40;27.60;99.90
35962;DHT22;22044;48.298;10.008;2023-09-08T16:05:25;27.90;99.90
35962;DHT22;22044;48.298;10.008;2023-09-08T16:08:11;27.70;99.90
35962;DHT22;22044;48.298;10.008;2023-09-08T16:10:59;27.60;99.90
35962;DHT22;22044;48.298;10.008;2023-09-08T16:13:45;27.40;99.90
35962;DHT22;22044;48.298;10.008;2023-09-08T16:16:31;27.60;99.90
35962;DHT22;22044;48.298;10.008;2023-09-08T16:19:17;27.90;99.90
35962;DHT22;22044;48.298;10.008;2023-09-08T16:22:03;28.20;99.90
35962;DHT22;22044;48.298;10.008;2023-09-08T16:24:51;28.30;99.90
35962;DHT22;22044;48.298;10.008;2023-09-08T16:27:37;28.20;99.90
35962;DHT22;22044;48.298;10.008;2023-09-08T16:30:24;28.00;99.90
35962;DHT22;22044;48.298;10.008;2023-09-08T16:33:10;27.80;99.90
35962;DHT22;22044;48.298;10.008;2023-09-08T16:35:57;28.00;99.90
35962;DHT22;22044;48.298;10.008;2023-09-08T16:38:42;27.90;99.90
35962;DHT22;22044;48.298;10.008;2023-09-08T16:41:28;27.40;99.90
35962;DHT22;22044;48.298;10.008;2023-09-08T16:44:14;27.10;99.90
35962;DHT22;22044;48.298;10.008;2023-09-08T16:47:02;27.20;99.90
35962;DHT22;22044;48.298;10.008;2023-09-08T16:49:48;27.20;99.90
35962;DHT22;22044;48.298;10.008;2023-09-08T16:52:33;27.10;99.90
35962;DHT22;22044;48.298;10.008;2023-09-08T16:55:19;27.20;99.90
35962;DHT22;22044;48.298;10.008;2023-09-08T16:58:04;27.00;99.90
35962;DHT22;22044;48.298;10.008;2023-09-08T17:00:50;27.00;99.90
35962;DHT22;22044;48.298;10.008;2023-09-08T17:03:38;26.90;99.90
35962;DHT22;22044;48.298;10.008;2023-09-08T17:06:23;26.70;99.90
35962;DHT22;22044;48.298;10.008;2023-09-08T17:09:09;26.60;99.90
35962;DHT22;22044;48.298;10.008;2023-09-08T17:11:58;26.40;99.90
35962;DHT22;22044;48.298;10.008;2023-09-08T17:14:43;26.20;99.90
35962;DHT22;22044;48.298;10.008;2023-09-08T17:17:29;26.20;99.90
35962;DHT22;22044;48.298;10.008;2023-09-08T17:20:16;26.10;99.90
35962;DHT22;22044;48.298;10.008;2023-09-08T17:23:03;25.90;99.90
35962;DHT22;22044;48.298;10.008;2023-09-08T17:25:49;25.80;99.90
35962;DHT22;22044;48.298;10.008;2023-09-08T17:28:35;25.80;99.90